createdAt,value
2023-01-03T00:04:27.943Z,2.30
2023-01-03T00:09:29.656Z,2.88
2023-01-03T00:14:34.448Z,3.58
2023-01-03T00:19:39.551Z,2.75
2023-01-03T00:24:42.087Z,3.42
2023-01-03T00:29:44.172Z,3.70
2023-01-03T00:34:46.512Z,3.00
2023-01-03T00:39:48.059Z,2.67
2023-01-03T00:44:49.559Z,2.13
2023-01-03T00:49:51.024Z,2.05
2023-01-03T00:54:52.453Z,2.33
2023-01-03T00:59:53.957Z,1.60
2023-01-03T01:04:55.500Z,1.63
2023-01-03T01:09:57.028Z,1.33
2023-01-03T01:14:58.553Z,1.67
2023-01-03T01:20:00.007Z,2.25
2023-01-03T01:25:01.971Z,0.90
2023-01-03T01:30:04.779Z,1.27
2023-01-03T01:35:06.773Z,1.48
2023-01-03T01:40:08.912Z,1.10
2023-01-03T01:45:14.453Z,1.20
2023-01-03T01:50:22.556Z,1.70
2023-01-03T01:55:30.047Z,1.40
2023-01-03T02:00:32.923Z,1.30
2023-01-03T02:05:36.968Z,1.50
2023-01-03T02:10:56.771Z,2.22
2023-01-03T02:16:24.036Z,1.33
2023-01-03T02:21:53.569Z,1.20
2023-01-03T02:27:03.019Z,1.13
2023-01-03T02:32:17.744Z,0.90
2023-01-03T02:37:32.778Z,1.30
2023-01-03T02:42:46.505Z,1.02
2023-01-03T02:47:57.916Z,0.90
2023-01-03T02:53:05.527Z,1.10
2023-01-03T02:58:12.780Z,2.08
2023-01-03T03:03:19.565Z,1.45
2023-01-03T03:08:21.199Z,1.45
2023-01-03T03:13:34.054Z,1.52
2023-01-03T03:18:50.497Z,1.20
2023-01-03T03:23:54.306Z,1.50
2023-01-03T03:29:02.485Z,1.63
2023-01-03T03:34:21.844Z,1.48
2023-01-03T03:39:24.869Z,1.55
2023-01-03T03:44:38.250Z,1.40
2023-01-03T03:49:43.914Z,1.50
2023-01-03T03:54:52.318Z,1.50
2023-01-03T03:59:58.810Z,1.70
2023-01-03T04:05:03.562Z,1.35
2023-01-03T04:10:06.294Z,1.52
2023-01-03T04:15:08.147Z,1.77
2023-01-03T04:20:11.092Z,1.70
2023-01-03T04:25:12.686Z,2.88
2023-01-03T04:30:14.239Z,2.08
2023-01-03T04:35:15.745Z,1.98
2023-01-03T04:40:17.375Z,2.22
2023-01-03T04:45:18.855Z,2.63
2023-01-03T04:50:20.320Z,2.80
2023-01-03T04:55:22.061Z,2.70
2023-01-03T05:00:23.533Z,4.07
2023-01-03T05:05:25.015Z,2.60
2023-01-03T05:10:26.480Z,2.38
2023-01-03T05:15:34.318Z,3.05
2023-01-03T05:20:37.123Z,2.55
2023-01-03T05:25:38.630Z,2.65
2023-01-03T05:30:40.160Z,2.40
2023-01-03T05:35:41.611Z,2.17
2023-01-03T05:40:43.482Z,2.38
2023-01-03T05:45:49.114Z,2.50
2023-01-03T05:50:50.614Z,2.33
2023-01-03T05:55:52.393Z,2.33
2023-01-03T06:00:53.889Z,2.13
2023-01-03T06:05:55.421Z,2.70
2023-01-03T06:10:56.941Z,4.70
2023-01-03T06:16:09.703Z,2.83
2023-01-03T06:21:11.212Z,2.60
2023-01-03T06:26:16.228Z,3.10
2023-01-03T06:31:18.170Z,2.97
2023-01-03T06:36:21.534Z,2.25
2023-01-03T06:41:23.041Z,3.00
2023-01-03T06:46:24.720Z,4.05
2023-01-03T06:51:27.820Z,3.55
2023-01-03T06:56:29.340Z,3.28
2023-01-03T07:01:31.077Z,3.13
2023-01-03T07:06:32.630Z,2.42
2023-01-03T07:11:34.486Z,2.80
2023-01-03T07:16:55.957Z,2.95
2023-01-03T07:21:57.473Z,2.95
2023-01-03T07:26:58.945Z,3.35
2023-01-03T07:32:00.450Z,3.03
2023-01-03T07:37:01.953Z,2.50
2023-01-03T07:42:03.480Z,2.78
2023-01-03T07:47:05.009Z,2.88
2023-01-03T07:52:06.485Z,3.22
2023-01-03T07:57:07.989Z,3.40
2023-01-03T08:02:09.572Z,2.80
2023-01-03T08:07:11.230Z,3.50
2023-01-03T08:12:12.724Z,2.92
2023-01-03T08:17:14.167Z,3.38
2023-01-03T08:22:15.678Z,3.10
2023-01-03T08:27:17.134Z,2.90
2023-01-03T08:32:19.177Z,3.17
2023-01-03T08:37:21.160Z,2.63
2023-01-03T08:42:23.995Z,2.85
2023-01-03T08:47:25.556Z,3.00
2023-01-03T08:52:33.109Z,3.75
2023-01-03T08:57:36.460Z,3.08
2023-01-03T09:02:38.140Z,2.97
2023-01-03T09:07:39.900Z,2.80
2023-01-03T09:12:41.404Z,3.13
2023-01-03T09:17:42.959Z,3.08
2023-01-03T09:22:44.700Z,3.10
2023-01-03T09:27:47.610Z,3.25
2023-01-03T09:32:52.195Z,4.32
2023-01-03T09:37:53.704Z,4.72
2023-01-03T09:43:04.440Z,4.80
2023-01-03T09:48:06.534Z,4.72
2023-01-03T09:53:18.504Z,5.25
2023-01-03T09:58:20.504Z,4.40
2023-01-03T10:03:52.804Z,6.80
2023-01-03T10:09:06.457Z,6.40
2023-01-03T10:14:26.341Z,7.90
2023-01-03T10:24:44.667Z,5.68
2023-01-03T10:29:47.806Z,5.35
2023-01-03T10:35:23.442Z,4.35
2023-01-03T10:40:58.285Z,4.20
2023-01-03T10:45:59.805Z,3.50
2023-01-03T10:51:05.042Z,2.60
2023-01-03T10:56:07.514Z,2.40
2023-01-03T11:01:19.968Z,2.38
2023-01-03T11:06:21.698Z,2.92
2023-01-03T11:11:32.070Z,3.72
2023-01-03T11:16:33.674Z,3.25
2023-01-03T11:21:50.386Z,3.00
2023-01-03T11:27:26.882Z,2.75
2023-01-03T11:32:35.939Z,3.38
2023-01-03T11:37:56.657Z,3.13
2023-01-03T11:43:34.954Z,2.65
2023-01-03T11:49:11.862Z,2.67
2023-01-03T11:54:53.142Z,2.80
2023-01-03T12:00:11.931Z,2.42
2023-01-03T12:05:30.837Z,2.70
2023-01-03T12:10:53.821Z,2.83
2023-01-03T12:16:10.352Z,3.00
2023-01-03T12:21:18.648Z,2.78
2023-01-03T12:26:24.980Z,2.85
2023-01-03T12:31:44.060Z,3.13
2023-01-03T12:37:08.449Z,2.10
2023-01-03T12:42:36.436Z,3.00
2023-01-03T12:47:46.995Z,1.98
2023-01-03T12:52:58.523Z,2.78
2023-01-03T12:58:39.270Z,2.65
2023-01-03T13:03:52.896Z,3.28
2023-01-03T13:09:02.773Z,3.05
2023-01-03T13:14:16.066Z,4.18
2023-01-03T13:19:20.584Z,3.55
2023-01-03T13:24:40.244Z,3.33
2023-01-03T13:29:43.369Z,3.08
2023-01-03T13:34:44.898Z,2.92
2023-01-03T13:39:57.991Z,1.98
2023-01-03T13:45:11.430Z,2.58
2023-01-03T13:50:32.270Z,2.92
2023-01-03T13:55:40.468Z,2.00
2023-01-03T14:00:43.094Z,2.40
2023-01-03T14:06:25.462Z,2.10
2023-01-03T14:11:45.531Z,2.70
2023-01-03T14:16:55.368Z,2.60
2023-01-03T14:22:28.591Z,2.95
2023-01-03T14:27:38.627Z,2.67
2023-01-03T14:32:40.130Z,2.22
2023-01-03T14:37:46.205Z,2.60
2023-01-03T14:42:47.784Z,2.53
2023-01-03T14:47:53.420Z,2.50
2023-01-03T14:52:57.611Z,2.45
2023-01-03T14:58:04.795Z,3.22
2023-01-03T15:03:12.673Z,2.60
2023-01-03T15:08:30.161Z,3.03
2023-01-03T15:13:52.093Z,3.70
2023-01-03T15:19:03.162Z,2.63
2023-01-03T15:24:05.369Z,2.95
2023-01-03T15:29:17.427Z,4.32
2023-01-03T15:34:20.081Z,3.15
2023-01-03T15:39:25.518Z,4.53
2023-01-03T15:44:28.107Z,4.03
2023-01-03T15:49:31.695Z,3.50
2023-01-03T15:54:33.261Z,3.67
2023-01-03T15:59:42.920Z,3.92
2023-01-03T16:04:46.590Z,4.15
2023-01-03T16:09:48.566Z,4.32
2023-01-03T16:14:52.944Z,5.22
2023-01-03T16:19:56.387Z,4.43
2023-01-03T16:24:57.894Z,4.75
2023-01-03T16:29:59.560Z,5.03
2023-01-03T16:35:03.606Z,4.80
2023-01-03T16:40:10.606Z,5.35
2023-01-03T16:45:12.627Z,5.65
2023-01-03T16:50:17.373Z,5.47
2023-01-03T16:55:26.517Z,5.10
2023-01-03T17:00:30.128Z,5.68
2023-01-03T17:05:33.848Z,4.70
2023-01-03T17:10:40.637Z,6.00
2023-01-03T17:15:42.147Z,5.13
2023-01-03T17:20:43.691Z,5.95
2023-01-03T17:25:45.190Z,5.95
2023-01-03T17:30:47.237Z,6.38
2023-01-03T17:35:48.891Z,6.90
2023-01-03T17:40:51.223Z,6.18
2023-01-03T17:45:55.275Z,7.88
2023-01-03T17:50:58.218Z,8.93
2023-01-03T17:55:59.867Z,7.78
2023-01-03T18:01:01.906Z,8.10
2023-01-03T18:06:15.642Z,6.60
2023-01-03T18:11:23.311Z,6.95
2023-01-03T18:16:24.918Z,8.43
2023-01-03T18:21:27.181Z,6.28
2023-01-03T18:26:34.232Z,5.93
2023-01-03T18:31:35.731Z,7.60
2023-01-03T18:36:43.301Z,8.23
2023-01-03T18:41:44.768Z,7.55
2023-01-03T18:46:46.259Z,10.50
2023-01-03T18:51:52.643Z,8.05
2023-01-03T18:56:54.196Z,7.90
2023-01-03T19:01:55.747Z,8.07
2023-01-03T19:06:57.330Z,9.63
2023-01-03T19:11:58.792Z,7.35
2023-01-03T19:17:00.345Z,6.57
2023-01-03T19:22:02.645Z,8.05
2023-01-03T19:27:06.124Z,6.72
2023-01-03T19:32:16.343Z,8.10
2023-01-03T19:37:18.245Z,9.35
2023-01-03T19:42:21.005Z,7.15
2023-01-03T19:47:22.461Z,5.97
2023-01-03T19:52:23.935Z,7.10
2023-01-03T19:57:31.785Z,6.63
2023-01-03T20:02:37.140Z,5.75
2023-01-03T20:07:38.769Z,6.13
2023-01-03T20:12:40.234Z,6.00
2023-01-03T20:17:41.699Z,6.07
2023-01-03T20:28:06.983Z,6.10
2023-01-03T20:33:08.530Z,5.30
2023-01-03T20:38:11.648Z,5.53
2023-01-03T20:43:13.790Z,5.25
2023-01-03T20:48:21.278Z,4.78
2023-01-03T20:53:27.058Z,5.60
2023-01-03T20:58:28.594Z,5.25
2023-01-03T21:03:30.126Z,6.10
2023-01-03T21:08:31.680Z,5.50
2023-01-03T21:13:33.241Z,4.65
2023-01-03T21:18:34.730Z,5.40
2023-01-03T21:23:36.184Z,5.25
2023-01-03T21:28:37.683Z,5.00
2023-01-03T21:33:39.116Z,5.53
2023-01-03T21:38:40.621Z,6.35
2023-01-03T21:43:42.155Z,5.72
2023-01-03T21:48:43.872Z,6.03
2023-01-03T21:53:45.631Z,4.43
2023-01-03T21:58:47.835Z,5.38
2023-01-03T22:03:50.403Z,4.93
2023-01-03T22:08:52.916Z,6.20
2023-01-03T22:13:56.693Z,5.00
2023-01-03T22:18:58.828Z,5.22
2023-01-03T22:24:00.355Z,4.80
2023-01-03T22:29:01.811Z,4.78
2023-01-03T22:34:03.715Z,4.95
2023-01-03T22:39:05.275Z,5.60
2023-01-03T22:44:06.985Z,5.38
2023-01-03T22:49:08.631Z,4.95
2023-01-03T22:54:10.171Z,5.20
2023-01-03T22:59:11.708Z,4.18
2023-01-03T23:04:13.463Z,5.22
2023-01-03T23:09:15.059Z,5.30
2023-01-03T23:14:21.207Z,4.50
2023-01-03T23:19:25.579Z,4.82
2023-01-03T23:24:27.057Z,4.55
2023-01-03T23:29:28.563Z,4.88
2023-01-03T23:34:30.088Z,4.55
2023-01-03T23:39:31.620Z,4.40
2023-01-03T23:44:33.102Z,3.33
2023-01-03T23:49:34.650Z,3.63
2023-01-03T23:54:36.176Z,3.38
2023-01-03T23:59:37.636Z,3.13
